Main page
METAR-TAF:

METAR-TAF

Airports :

Mannheim, Germany

Mannheim City Airport

latitude: 49-28-21N, longitude: 008-30-56E, elevation: 100 m

Current weather observation

The report was made 5 hours and 57 minutes ago, at 18:20 UTC
Wind 5 kt from the Southwest, varying between South/Southwest and West
Temperature 5°C
Humidity 75%
Pressure 1021 hPa
Visibility 10 km or more
no clouds below 1500 m and no cumulonimbus

METAR: EDFM 191820Z 23005KT 200V260 CAVOK 05/01 Q1021

Time: 01:17 (00:17 UTC)


TAF: missing

Weather observations and forecasts of more than 4000 airports (METAR and TAF reports).

The available stations are represented by yellow and red dots on the map.

Hover mouse over dot to see the name of the station.

Then click to see weather observations and forecasts.

To change the map : click on the green buttons with a black cross to zoom in, on the green button with a dash to zoom out, or on the green arrows for adjacent maps.


METAR-TAF: